Terminal Aerodrome Forecast
Issued by NWS Tulsa, OK

Home | Current Version | Previous Version | Text Only | Print | Product List | Glossary On
Versions: 1 2 3 4 5 6 7 8 9 10 11 12 13
648
FTUS44 KTSA 102333
TAFFSM
TAF
KFSM 102333Z 1100/1124 21006KT P6SM SKC
     FM110300 12003KT P6SM SKC
     FM110400 18002KT P6SM SKC
     FM110500 22002KT P6SM SKC
     FM110600 26002KT P6SM SKC
     FM111400 33005KT P6SM SKC
     FM111600 04006KT P6SM SKC
     FM112300 36006KT P6SM FEW250=

USA.gov is the U.S. government's official web portal to all federal, state and local government web resources and services.